Time;durP1;ratioP1;P1;durP2;ratioP2;P2;SDS_P1;SDS_P2;PMS_P1;PMS_P2;Temp;Humidity;BMP_temperature;BMP_pressure;BME280_temperature;BME280_humidity;BME280_pressure;Samples;Min_cycle;Max_cycle;Signal;HPM_P1;HPM_P2
2021/01/26 00:00:50;;;;;;;2.10;0.20;;;8.50;61.90;;;;;;4968057;28;20190;-72
2021/01/26 00:03:16;;;;;;;0.20;0.20;;;8.50;62.10;;;;;;4950058;28;20197;-72
2021/01/26 00:05:43;;;;;;;0.20;0.20;;;8.50;62.10;;;;;;4967163;28;20194;-73
2021/01/26 00:08:08;;;;;;;0.20;0.20;;;8.50;62.10;;;;;;4950023;28;20212;-72
2021/01/26 00:10:35;;;;;;;0.47;0.10;;;8.40;61.50;;;;;;4966787;28;20687;-72
2021/01/26 00:13:01;;;;;;;2.00;0.20;;;8.40;61.80;;;;;;4979244;28;20287;-72
2021/01/26 00:15:27;;;;;;;0.10;0.10;;;8.50;62.30;;;;;;4966785;28;20233;-73
2021/01/26 00:17:52;;;;;;;0.00;0.00;;;8.60;61.70;;;;;;4966439;28;20190;-72
2021/01/26 00:20:19;;;;;;;0.10;0.10;;;8.60;61.30;;;;;;4966679;28;20923;-72
2021/01/26 00:22:45;;;;;;;0.10;0.10;;;8.70;61.60;;;;;;4967418;28;20217;-72
2021/01/26 00:25:22;;;;;;;0.77;0.20;;;8.80;61.70;;;;;;4964234;28;20208;-73
2021/01/26 00:27:47;;;;;;;0.10;0.10;;;8.80;61.60;;;;;;4964278;28;20208;-72
2021/01/26 00:30:19;;;;;;;0.10;0.00;;;8.90;61.50;;;;;;4970226;28;20595;-72
2021/01/26 00:32:44;;;;;;;0.10;0.10;;;8.80;61.20;;;;;;4965132;28;20403;-72
2021/01/26 00:35:12;;;;;;;0.10;0.10;;;8.90;61.50;;;;;;4961141;28;20746;-72
2021/01/26 00:37:37;;;;;;;0.10;0.10;;;8.90;61.70;;;;;;4966734;28;20697;-72
2021/01/26 00:40:04;;;;;;;0.10;0.10;;;8.90;61.70;;;;;;4986754;28;20185;-72
2021/01/26 00:42:30;;;;;;;0.10;0.10;;;8.90;61.80;;;;;;4969056;28;20209;-72
2021/01/26 00:44:56;;;;;;;0.10;0.10;;;8.90;61.60;;;;;;4986800;28;20691;-73
2021/01/26 00:47:21;;;;;;;2.20;0.10;;;8.80;61.80;;;;;;4979323;28;20194;-72
2021/01/26 00:49:47;;;;;;;0.30;0.30;;;8.80;61.70;;;;;;4967578;28;20265;-72
2021/01/26 00:52:13;;;;;;;0.30;0.10;;;8.90;61.50;;;;;;4972798;28;20217;-72
2021/01/26 00:54:39;;;;;;;0.10;0.10;;;8.90;61.70;;;;;;4966584;28;20185;-72
2021/01/26 00:57:05;;;;;;;0.00;0.00;;;9.00;61.70;;;;;;4971542;28;20300;-72
2021/01/26 00:59:32;;;;;;;0.17;0.17;;;9.00;61.80;;;;;;4972696;28;20740;-72
2021/01/26 01:01:58;;;;;;;0.10;0.10;;;9.10;61.70;;;;;;4980518;28;20202;-72
2021/01/26 01:04:24;;;;;;;0.10;0.10;;;9.10;61.70;;;;;;4967134;28;20178;-72
2021/01/26 01:06:50;;;;;;;0.10;0.10;;;9.10;61.60;;;;;;4966759;28;20224;-73
2021/01/26 01:09:16;;;;;;;0.10;0.10;;;9.10;61.80;;;;;;4951950;28;20181;-72
2021/01/26 01:11:42;;;;;;;0.10;0.10;;;9.10;61.80;;;;;;4975745;28;20218;-72
2021/01/26 01:14:08;;;;;;;0.00;0.00;;;9.10;61.70;;;;;;4966314;28;20174;-72
2021/01/26 01:16:33;;;;;;;1.70;0.30;;;9.10;61.60;;;;;;4968019;28;20190;-72
2021/01/26 01:18:59;;;;;;;0.03;0.03;;;9.20;61.80;;;;;;4966703;28;20246;-72
2021/01/26 01:21:25;;;;;;;0.10;0.10;;;9.20;61.70;;;;;;4965593;28;20214;-73
2021/01/26 01:23:50;;;;;;;0.20;0.20;;;9.20;61.60;;;;;;4967861;28;20619;-72
2021/01/26 01:26:16;;;;;;;0.63;0.10;;;9.20;62.00;;;;;;4972190;28;20205;-72
2021/01/26 01:28:42;;;;;;;0.20;0.10;;;9.30;62.10;;;;;;4969016;28;20202;-73
2021/01/26 01:31:08;;;;;;;0.03;0.03;;;9.30;62.00;;;;;;4966353;28;20230;-72
2021/01/26 01:33:33;;;;;;;0.00;0.00;;;9.20;61.70;;;;;;4976963;28;20189;-72
2021/01/26 01:35:59;;;;;;;2.40;0.20;;;9.20;62.20;;;;;;4980206;28;20210;-72
2021/01/26 01:38:25;;;;;;;0.00;0.00;;;9.10;62.20;;;;;;4966331;28;20225;-72
2021/01/26 01:40:52;;;;;;;0.10;0.10;;;9.10;62.40;;;;;;4966339;28;20187;-72
2021/01/26 01:43:18;;;;;;;0.10;0.10;;;9.20;63.00;;;;;;4966317;28;20198;-72
2021/01/26 01:45:44;;;;;;;0.23;0.20;;;9.20;62.90;;;;;;4969364;28;20190;-72
2021/01/26 01:48:21;;;;;;;0.20;0.10;;;9.20;62.80;;;;;;4956623;28;20262;-73
2021/01/26 01:50:50;;;;;;;0.00;0.00;;;9.20;62.60;;;;;;4951677;28;20224;-72
2021/01/26 01:53:22;;;;;;;0.30;0.30;;;9.20;62.90;;;;;;4956026;28;20229;-72
2021/01/26 01:56:06;;;;;;;0.20;0.20;;;9.20;63.30;;;;;;4966140;28;20171;-72
2021/01/26 01:58:38;;;;;;;0.10;0.10;;;9.20;63.40;;;;;;4978910;28;20454;-72
2021/01/26 02:01:12;;;;;;;0.10;0.10;;;9.20;63.50;;;;;;4986116;28;20189;-72
2021/01/26 02:03:43;;;;;;;0.10;0.10;;;9.10;63.20;;;;;;4969428;28;20520;-72
2021/01/26 02:06:10;;;;;;;0.10;0.10;;;9.10;63.50;;;;;;4966191;28;20806;-72
2021/01/26 02:08:41;;;;;;;0.10;0.10;;;9.00;63.70;;;;;;4965215;28;20285;-72
2021/01/26 02:11:07;;;;;;;0.10;0.10;;;9.00;64.20;;;;;;4978343;28;20361;-72
2021/01/26 02:13:33;;;;;;;0.53;0.10;;;9.00;64.20;;;;;;4965014;28;20187;-72
2021/01/26 02:16:04;;;;;;;0.10;0.10;;;9.00;64.10;;;;;;4970355;28;20189;-72
2021/01/26 02:18:50;;;;;;;0.10;0.10;;;9.00;64.10;;;;;;4952213;28;20240;-72
2021/01/26 02:21:30;;;;;;;0.57;0.20;;;9.10;64.20;;;;;;4970199;28;20566;-72
2021/01/26 02:24:11;;;;;;;0.10;0.10;;;9.10;64.10;;;;;;4975422;28;20198;-72
2021/01/26 02:26:59;;;;;;;0.03;0.03;;;9.10;64.00;;;;;;4952145;28;20209;-71
2021/01/26 02:29:42;;;;;;;0.20;0.20;;;9.20;64.40;;;;;;4983984;28;20604;-73
2021/01/26 02:32:42;;;;;;;0.10;0.10;;;9.10;63.70;;;;;;4953746;28;20192;-71
2021/01/26 02:35:10;;;;;;;0.10;0.10;;;9.10;64.10;;;;;;4988780;28;20177;-72
2021/01/26 02:38:00;;;;;;;0.10;0.10;;;9.10;64.70;;;;;;4988923;28;20189;-72
2021/01/26 02:40:36;;;;;;;0.47;0.10;;;9.10;64.70;;;;;;4981595;28;20182;-72
2021/01/26 02:43:04;;;;;;;0.30;0.13;;;9.10;64.90;;;;;;4981589;28;20183;-72
2021/01/26 02:45:43;;;;;;;0.10;0.10;;;9.10;64.90;;;;;;4983323;28;20215;-72
2021/01/26 02:48:27;;;;;;;0.17;0.17;;;9.10;65.30;;;;;;4970165;28;20214;-72
2021/01/26 02:51:24;;;;;;;0.60;0.20;;;9.10;65.00;;;;;;4985569;28;20225;-72
2021/01/26 02:54:03;;;;;;;0.20;0.00;;;9.10;65.30;;;;;;4986629;28;20231;-74
2021/01/26 02:56:52;;;;;;;0.83;0.20;;;9.10;65.30;;;;;;4988247;28;20673;-71
2021/01/26 02:59:30;;;;;;;0.20;0.20;;;9.20;65.30;;;;;;4983570;28;21147;-72
2021/01/26 03:02:07;;;;;;;0.73;0.30;;;9.30;65.00;;;;;;4970417;28;20774;-72
2021/01/26 03:05:08;;;;;;;0.47;0.40;;;9.20;65.00;;;;;;4968740;28;20177;-72
2021/01/26 03:07:44;;;;;;;0.77;0.57;;;9.20;65.00;;;;;;4921446;29;20195;-72
2021/01/26 03:10:15;;;;;;;2.10;0.83;;;9.20;64.60;;;;;;4909412;29;21055;-71
2021/01/26 03:12:50;;;;;;;3.60;0.70;;;9.10;64.70;;;;;;4922663;29;21096;-72
2021/01/26 03:15:20;;;;;;;1.07;0.83;;;9.10;64.80;;;;;;4912083;29;20167;-72
2021/01/26 03:17:56;;;;;;;1.00;0.83;;;9.00;64.90;;;;;;4927665;29;20319;-72
2021/01/26 03:20:32;;;;;;;1.70;1.20;;;8.90;65.20;;;;;;4904971;29;20196;-72
2021/01/26 03:23:03;;;;;;;1.10;1.00;;;8.80;65.30;;;;;;4894456;29;20589;-71
2021/01/26 03:25:30;;;;;;;4.70;1.40;;;8.70;65.50;;;;;;4908861;29;20196;-72
2021/01/26 03:28:05;;;;;;;2.23;1.70;;;8.60;65.60;;;;;;4909352;29;20316;-71
2021/01/26 03:30:36;;;;;;;1.30;1.20;;;8.40;66.00;;;;;;4913988;29;20214;-72
2021/01/26 03:33:11;;;;;;;0.93;0.90;;;8.30;66.30;;;;;;4888658;29;20746;-72
2021/01/26 03:35:37;;;;;;;0.97;0.97;;;8.20;66.40;;;;;;4916000;29;20187;-72
2021/01/26 03:38:20;;;;;;;0.60;0.60;;;8.10;66.60;;;;;;4909787;29;20207;-72
2021/01/26 03:40:46;;;;;;;1.70;0.97;;;8.00;67.10;;;;;;4910306;29;20192;-72
2021/01/26 03:43:11;;;;;;;1.00;1.00;;;7.90;67.40;;;;;;4909564;29;20251;-72
2021/01/26 03:45:37;;;;;;;2.93;1.17;;;7.80;67.80;;;;;;4967923;28;20233;-73
2021/01/26 03:48:15;;;;;;;2.27;1.10;;;7.60;67.80;;;;;;4950433;28;20182;-72
2021/01/26 03:50:56;;;;;;;1.93;0.90;;;7.60;68.20;;;;;;4967523;28;20194;-72
2021/01/26 03:53:37;;;;;;;0.83;0.83;;;7.50;68.40;;;;;;4965328;28;20183;-72
2021/01/26 03:56:24;;;;;;;0.97;0.70;;;7.40;68.90;;;;;;4973678;28;20201;-72
2021/01/26 03:59:19;;;;;;;2.37;0.73;;;7.30;68.80;;;;;;4957261;28;20170;-74
2021/01/26 04:02:09;;;;;;;0.83;0.40;;;7.30;69.30;;;;;;4949943;28;20174;-73
2021/01/26 04:04:55;;;;;;;0.50;0.50;;;7.30;69.50;;;;;;4967471;28;20943;-73
2021/01/26 04:07:33;;;;;;;1.23;0.90;;;7.20;69.40;;;;;;4966797;28;20178;-73
2021/01/26 04:10:07;;;;;;;0.90;0.90;;;7.20;69.40;;;;;;4965315;28;20206;-73
2021/01/26 04:12:36;;;;;;;0.50;0.50;;;7.20;69.80;;;;;;4966566;28;20178;-73
2021/01/26 04:15:18;;;;;;;0.67;0.67;;;7.10;69.90;;;;;;4966763;28;20183;-73
2021/01/26 04:17:50;;;;;;;3.60;0.50;;;7.10;70.10;;;;;;4967223;28;20175;-73
2021/01/26 04:20:27;;;;;;;0.60;0.60;;;7.10;70.20;;;;;;4966802;28;20193;-73
2021/01/26 04:22:55;;;;;;;6.03;0.70;;;7.00;70.20;;;;;;4963470;28;20588;-73
2021/01/26 04:25:27;;;;;;;1.07;0.70;;;7.00;70.30;;;;;;4966852;28;20189;-73
2021/01/26 04:27:53;;;;;;;0.50;0.50;;;7.00;70.50;;;;;;4962254;28;20183;-73
2021/01/26 04:30:19;;;;;;;1.33;0.77;;;6.90;70.70;;;;;;4966315;28;20210;-73
2021/01/26 04:32:45;;;;;;;3.20;0.80;;;6.90;70.60;;;;;;4946832;28;20182;-73
2021/01/26 04:35:11;;;;;;;0.67;0.67;;;6.90;70.70;;;;;;4964690;28;20706;-74
2021/01/26 04:37:37;;;;;;;1.40;1.00;;;6.80;71.00;;;;;;4966578;28;20229;-73
2021/01/26 04:40:04;;;;;;;0.67;0.67;;;6.80;71.30;;;;;;4966232;28;20186;-74
2021/01/26 04:42:34;;;;;;;1.47;0.77;;;6.80;72.00;;;;;;4966272;28;20178;-71
2021/01/26 04:45:09;;;;;;;0.67;0.67;;;6.80;72.40;;;;;;4966395;28;20633;-73
2021/01/26 04:47:51;;;;;;;0.80;0.80;;;6.70;72.80;;;;;;4960318;28;20174;-72
2021/01/26 04:51:01;;;;;;;0.60;0.53;;;6.70;73.10;;;;;;4949372;28;20191;-72
2021/01/26 04:53:51;;;;;;;0.97;0.77;;;6.70;73.70;;;;;;4925114;29;20329;-72
2021/01/26 04:56:26;;;;;;;1.93;0.97;;;6.70;74.80;;;;;;4925478;29;20184;-72
2021/01/26 04:59:34;;;;;;;0.60;0.57;;;6.70;74.80;;;;;;4925502;29;20239;-72
2021/01/26 05:02:28;;;;;;;0.60;0.60;;;6.60;75.30;;;;;;4925264;29;20176;-72
2021/01/26 05:05:09;;;;;;;0.60;0.60;;;6.60;75.70;;;;;;4907611;29;20168;-72
2021/01/26 05:07:42;;;;;;;0.90;0.90;;;6.60;76.10;;;;;;4908508;29;20262;-73
2021/01/26 05:10:30;;;;;;;1.00;0.70;;;6.50;76.50;;;;;;4909841;29;20691;-72
2021/01/26 05:13:03;;;;;;;0.80;0.70;;;6.40;76.90;;;;;;4905114;29;21001;-72
2021/01/26 05:15:32;;;;;;;0.73;0.73;;;6.40;77.10;;;;;;4926056;29;20707;-73
2021/01/26 05:18:06;;;;;;;0.90;0.63;;;6.30;78.10;;;;;;4906575;29;20253;-73
2021/01/26 05:20:59;;;;;;;0.77;0.77;;;6.30;78.90;;;;;;4924950;29;20184;-73
2021/01/26 05:23:34;;;;;;;0.70;0.70;;;6.20;79.20;;;;;;4887641;29;20193;-72
2021/01/26 05:26:00;;;;;;;1.37;1.00;;;6.20;79.60;;;;;;4872688;29;20360;-72
2021/01/26 05:28:25;;;;;;;4.17;1.20;;;6.20;79.50;;;;;;4891936;29;21964;-72
2021/01/26 05:31:04;;;;;;;1.27;0.50;;;6.10;79.90;;;;;;4907070;29;20223;-72
2021/01/26 05:33:31;;;;;;;0.30;0.30;;;6.10;79.90;;;;;;4906256;29;20180;-72
2021/01/26 05:36:01;;;;;;;0.60;0.60;;;6.10;80.40;;;;;;4906616;29;20216;-72
2021/01/26 05:38:27;;;;;;;0.60;0.60;;;6.10;80.10;;;;;;4905437;29;20283;-72
2021/01/26 05:41:02;;;;;;;0.93;0.60;;;6.20;80.60;;;;;;4906366;29;20662;-72
2021/01/26 05:43:30;;;;;;;1.63;0.67;;;6.20;80.20;;;;;;4906357;29;20184;-72
2021/01/26 05:45:59;;;;;;;1.70;0.80;;;6.20;80.50;;;;;;4912290;29;20232;-73
2021/01/26 05:48:26;;;;;;;0.80;0.80;;;6.20;80.70;;;;;;4908722;29;20192;-72
2021/01/26 05:51:13;;;;;;;0.87;0.83;;;6.20;81.30;;;;;;4904632;29;20848;-72
2021/01/26 05:53:40;;;;;;;3.73;0.50;;;6.20;81.10;;;;;;4908404;29;20222;-72
2021/01/26 05:56:13;;;;;;;3.73;0.43;;;6.20;81.90;;;;;;4908926;29;20260;-72
2021/01/26 05:58:49;;;;;;;0.63;0.63;;;6.20;81.40;;;;;;4909449;29;20640;-72
2021/01/26 06:01:31;;;;;;;2.50;0.73;;;6.20;81.30;;;;;;4943581;28;20197;-72
2021/01/26 06:04:13;;;;;;;0.80;0.50;;;6.30;81.00;;;;;;4968871;28;20195;-72
2021/01/26 06:06:50;;;;;;;0.53;0.53;;;6.30;81.30;;;;;;4973915;28;20182;-72
2021/01/26 06:09:37;;;;;;;0.30;0.30;;;6.30;81.20;;;;;;4973353;28;20580;-72
2021/01/26 06:12:10;;;;;;;0.60;0.60;;;6.30;82.40;;;;;;4971690;28;20194;-72
2021/01/26 06:14:36;;;;;;;0.50;0.50;;;6.30;82.20;;;;;;4967017;28;20197;-73
2021/01/26 06:17:22;;;;;;;0.50;0.30;;;6.20;83.10;;;;;;4970350;28;20195;-74
2021/01/26 06:20:01;;;;;;;0.33;0.33;;;6.10;83.80;;;;;;4978004;28;20181;-75
2021/01/26 06:22:27;;;;;;;0.23;0.23;;;6.00;84.20;;;;;;4974679;28;20218;-75
2021/01/26 06:24:56;;;;;;;3.00;0.50;;;6.00;85.00;;;;;;4968824;28;20268;-74
2021/01/26 06:27:21;;;;;;;0.40;0.40;;;5.90;85.30;;;;;;4965545;28;20178;-74
2021/01/26 06:30:07;;;;;;;0.20;0.20;;;5.80;85.70;;;;;;4967662;28;20276;-74
2021/01/26 06:33:20;;;;;;;0.83;0.73;;;5.80;86.50;;;;;;4956504;28;20174;-76
2021/01/26 06:36:25;;;;;;;0.60;0.60;;;5.70;86.60;;;;;;4904084;29;20200;-76
2021/01/26 06:39:02;;;;;;;1.13;0.40;;;5.50;88.00;;;;;;4871820;29;20228;-76
2021/01/26 06:42:01;;;;;;;0.80;0.50;;;5.50;88.20;;;;;;4871867;29;20196;-74
2021/01/26 06:44:47;;;;;;;0.57;0.57;;;5.40;88.60;;;;;;4869636;29;20216;-72
2021/01/26 06:47:19;;;;;;;0.50;0.50;;;5.40;88.60;;;;;;4868171;29;20205;-71
2021/01/26 06:49:51;;;;;;;0.40;0.40;;;5.50;88.90;;;;;;4862692;29;20292;-72
2021/01/26 06:52:19;;;;;;;3.80;1.07;;;5.40;89.10;;;;;;4872989;29;20581;-71
2021/01/26 06:55:12;;;;;;;0.50;0.50;;;5.40;89.30;;;;;;4881050;29;20206;-71
2021/01/26 06:58:08;;;;;;;1.63;0.80;;;5.40;88.90;;;;;;4879579;29;20177;-71
2021/01/26 07:00:47;;;;;;;0.40;0.40;;;5.40;89.30;;;;;;4877398;29;20262;-72
2021/01/26 07:03:24;;;;;;;0.33;0.33;;;5.40;89.60;;;;;;4876991;29;20201;-74
2021/01/26 07:06:30;;;;;;;0.43;0.43;;;5.40;90.50;;;;;;4866349;29;20559;-72
2021/01/26 07:09:17;;;;;;;1.07;0.60;;;5.40;90.60;;;;;;4865023;29;21064;-72
2021/01/26 07:12:13;;;;;;;0.50;0.50;;;5.40;91.00;;;;;;4862071;29;20291;-75
2021/01/26 07:14:42;;;;;;;2.00;0.50;;;5.40;91.00;;;;;;4895335;28;20224;-72
2021/01/26 07:17:08;;;;;;;0.57;0.57;;;5.30;91.70;;;;;;4966914;28;20198;-72
2021/01/26 07:20:02;;;;;;;0.20;0.20;;;5.20;91.90;;;;;;4967760;28;20845;-74
2021/01/26 07:23:10;;;;;;;0.20;0.20;;;5.10;91.90;;;;;;4967886;28;20182;-72
2021/01/26 07:25:42;;;;;;;0.10;0.10;;;4.80;91.10;;;;;;4967559;28;20257;-72
2021/01/26 07:28:26;;;;;;;0.20;0.20;;;4.60;91.20;;;;;;4967736;28;20182;-72
2021/01/26 07:31:01;;;;;;;0.20;0.20;;;4.40;91.30;;;;;;4950859;28;20308;-72
2021/01/26 07:33:55;;;;;;;0.20;0.17;;;4.20;91.50;;;;;;4948523;28;20182;-72
2021/01/26 07:36:20;;;;;;;0.47;0.47;;;4.00;92.10;;;;;;4962490;28;20179;-72
2021/01/26 07:39:17;;;;;;;0.47;0.47;;;3.80;92.50;;;;;;4966078;28;20186;-72
2021/01/26 07:42:04;;;;;;;0.30;0.30;;;3.70;93.10;;;;;;4921402;29;20231;-79
2021/01/26 07:44:48;;;;;;;0.70;0.50;;;3.50;93.50;;;;;;4927301;29;20175;-76
2021/01/26 07:47:28;;;;;;;1.17;0.40;;;3.30;93.90;;;;;;4909664;29;20211;-76
2021/01/26 07:50:14;;;;;;;0.40;0.40;;;3.20;94.30;;;;;;4925921;29;21068;-73
2021/01/26 07:52:43;;;;;;;0.63;0.63;;;3.00;94.40;;;;;;4888643;29;20193;-74
2021/01/26 07:55:40;;;;;;;0.40;0.40;;;2.90;95.10;;;;;;4887802;29;20216;-73
2021/01/26 07:58:12;;;;;;;1.43;1.33;;;2.80;95.30;;;;;;4887213;29;20302;-73
2021/01/26 08:00:41;;;;;;;1.13;1.13;;;2.70;95.90;;;;;;4888187;29;20617;-73
2021/01/26 08:03:07;;;;;;;0.93;0.93;;;2.50;96.50;;;;;;4887722;29;20240;-75
2021/01/26 08:05:54;;;;;;;0.40;0.40;;;2.40;96.90;;;;;;4890491;29;20297;-73
2021/01/26 08:08:40;;;;;;;0.50;0.50;;;2.30;97.50;;;;;;4871350;29;20186;-73
2021/01/26 08:11:14;;;;;;;0.30;0.30;;;2.20;97.80;;;;;;4888315;29;20217;-73
2021/01/26 08:13:48;;;;;;;0.30;0.30;;;2.10;98.30;;;;;;4871995;29;20275;-73
2021/01/26 08:16:29;;;;;;;0.67;0.50;;;2.00;98.40;;;;;;4887082;29;20295;-73
2021/01/26 08:18:55;;;;;;;0.10;0.10;;;1.90;98.30;;;;;;4900189;29;20263;-75
2021/01/26 08:21:57;;;;;;;0.20;0.20;;;1.80;98.50;;;;;;4921251;29;20183;-76
2021/01/26 08:24:23;;;;;;;0.40;0.40;;;1.80;98.50;;;;;;4890931;29;20803;-76
2021/01/26 08:27:15;;;;;;;0.20;0.20;;;1.70;98.50;;;;;;4871246;29;20189;-75
2021/01/26 08:29:40;;;;;;;0.23;0.20;;;1.60;98.50;;;;;;4894736;29;20201;-74
2021/01/26 08:32:27;;;;;;;0.20;0.20;;;1.60;98.50;;;;;;4895329;29;20195;-75
2021/01/26 08:35:01;;;;;;;0.77;0.43;;;1.50;98.50;;;;;;4892816;29;20185;-75
2021/01/26 08:37:53;;;;;;;0.20;0.20;;;1.50;98.50;;;;;;4895460;29;20185;-74
2021/01/26 08:40:50;;;;;;;0.23;0.23;;;1.50;98.50;;;;;;4889731;29;20204;-74
2021/01/26 08:43:40;;;;;;;0.40;0.40;;;1.40;98.50;;;;;;4909175;29;20173;-76
2021/01/26 08:46:07;;;;;;;0.50;0.40;;;1.30;98.50;;;;;;4910965;29;20263;-78
2021/01/26 08:48:33;;;;;;;0.60;0.60;;;1.30;98.50;;;;;;4898635;29;20192;-78
2021/01/26 08:50:59;;;;;;;0.60;0.60;;;1.20;98.50;;;;;;4891632;29;20216;-76
2021/01/26 08:53:27;;;;;;;0.40;0.40;;;1.20;98.50;;;;;;4892419;29;20294;-78
2021/01/26 08:56:15;;;;;;;0.37;0.37;;;1.10;98.50;;;;;;4894675;29;20189;-77
2021/01/26 08:58:50;;;;;;;0.30;0.30;;;1.00;98.50;;;;;;4909674;29;20834;-76
2021/01/26 09:01:42;;;;;;;0.30;0.30;;;1.10;98.50;;;;;;4961055;28;20209;-76
2021/01/26 09:04:13;;;;;;;0.20;0.20;;;1.10;98.50;;;;;;4965900;28;20177;-75
2021/01/26 09:06:39;;;;;;;0.20;0.20;;;1.00;98.50;;;;;;4960026;28;20667;-76
2021/01/26 09:09:23;;;;;;;0.33;0.20;;;1.00;98.50;;;;;;4961024;28;20186;-75
2021/01/26 09:11:53;;;;;;;0.60;0.50;;;0.90;98.50;;;;;;4961257;28;20202;-75
2021/01/26 09:14:21;;;;;;;0.50;0.50;;;1.00;98.50;;;;;;4948284;28;20253;-76
2021/01/26 09:16:54;;;;;;;0.87;0.30;;;0.90;98.50;;;;;;4947540;28;20735;-76
2021/01/26 09:19:25;;;;;;;2.40;0.40;;;0.90;98.50;;;;;;4964355;28;20245;-74
2021/01/26 09:21:50;;;;;;;0.43;0.20;;;1.00;98.50;;;;;;4963847;28;20216;-75
2021/01/26 09:24:24;;;;;;;0.60;0.60;;;1.00;98.50;;;;;;4966835;28;20602;-75
2021/01/26 09:26:50;;;;;;;1.63;0.60;;;1.00;98.50;;;;;;4961415;28;20309;-75
2021/01/26 09:29:24;;;;;;;0.53;0.30;;;1.10;98.50;;;;;;4950906;28;20194;-75
2021/01/26 09:31:51;;;;;;;0.20;0.20;;;1.00;98.50;;;;;;4929708;29;20215;-75
2021/01/26 09:34:24;;;;;;;0.40;0.40;;;0.90;98.50;;;;;;4930777;28;20198;-74
2021/01/26 09:36:49;;;;;;;0.30;0.30;;;0.90;98.50;;;;;;4957191;28;20163;-75
2021/01/26 09:39:18;;;;;;;0.20;0.20;;;0.90;98.50;;;;;;4949197;28;21006;-75
2021/01/26 09:41:44;;;;;;;1.27;0.60;;;0.90;98.50;;;;;;4960272;28;20202;-75
2021/01/26 09:44:20;;;;;;;1.90;0.30;;;0.80;98.50;;;;;;4965762;28;20213;-75
2021/01/26 09:46:58;;;;;;;0.33;0.33;;;0.80;98.50;;;;;;4946880;29;20163;-75
2021/01/26 09:49:28;;;;;;;0.40;0.40;;;0.80;98.50;;;;;;4945851;28;20270;-75
2021/01/26 09:52:02;;;;;;;0.63;0.63;;;0.80;98.50;;;;;;4946648;29;20266;-75
2021/01/26 09:54:34;;;;;;;0.20;0.20;;;0.70;98.50;;;;;;4946795;29;20166;-75
2021/01/26 09:57:03;;;;;;;0.30;0.30;;;0.70;98.50;;;;;;4953556;28;20167;-75
2021/01/26 09:59:32;;;;;;;0.40;0.40;;;0.70;98.50;;;;;;4960559;28;20174;-75
2021/01/26 10:02:00;;;;;;;0.20;0.20;;;0.70;98.50;;;;;;4964777;28;20667;-75
2021/01/26 10:04:27;;;;;;;0.40;0.40;;;0.70;98.50;;;;;;4965176;28;20261;-75
2021/01/26 10:07:04;;;;;;;0.47;0.40;;;0.70;98.50;;;;;;4964815;28;20176;-75
2021/01/26 10:09:31;;;;;;;0.97;0.47;;;0.70;98.50;;;;;;4956166;28;20175;-80
2021/01/26 10:12:37;;;;;;;0.50;0.50;;;0.70;98.50;;;;;;4938262;28;20232;-82
2021/01/26 10:15:19;;;;;;;0.40;0.40;;;0.70;98.50;;;;;;4952593;28;20186;-83
2021/01/26 10:17:53;;;;;;;0.63;0.50;;;0.80;98.50;;;;;;4968591;28;20202;-76
2021/01/26 10:20:44;;;;;;;0.83;0.83;;;0.80;98.50;;;;;;4948691;28;21004;-76
2021/01/26 10:23:20;;;;;;;0.93;0.70;;;0.80;98.50;;;;;;4871124;29;20621;-77
2021/01/26 10:25:46;;;;;;;3.50;0.93;;;0.80;98.50;;;;;;4898883;29;20206;-77
2021/01/26 10:28:19;;;;;;;0.80;0.73;;;0.80;98.50;;;;;;4895929;29;20201;-79
2021/01/26 10:30:47;;;;;;;6.17;1.20;;;0.90;98.50;;;;;;4894185;29;21094;-77
2021/01/26 10:33:33;;;;;;;2.40;1.40;;;0.80;98.50;;;;;;4891606;29;20213;-77
2021/01/26 10:36:32;;;;;;;1.70;1.23;;;0.80;98.50;;;;;;4904976;29;20188;-77
2021/01/26 10:39:24;;;;;;;0.90;0.63;;;0.80;98.50;;;;;;4897556;29;20188;-77
2021/01/26 10:41:58;;;;;;;1.80;1.00;;;0.90;98.50;;;;;;4892096;29;20882;-77
2021/01/26 10:44:24;;;;;;;0.60;0.60;;;0.90;98.50;;;;;;4896721;29;20251;-77
2021/01/26 10:46:51;;;;;;;0.70;0.70;;;0.90;98.50;;;;;;4895455;29;20259;-76
2021/01/26 10:49:36;;;;;;;1.20;1.10;;;0.90;98.50;;;;;;4893304;29;20601;-77
2021/01/26 10:52:05;;;;;;;1.10;1.00;;;0.90;98.50;;;;;;4887096;29;20771;-76
2021/01/26 10:54:31;;;;;;;0.97;0.97;;;0.90;98.50;;;;;;4896892;29;20197;-81
2021/01/26 10:56:57;;;;;;;1.83;1.30;;;0.90;98.50;;;;;;4928112;29;20180;-87
2021/01/26 10:59:23;;;;;;;0.70;0.60;;;0.80;98.50;;;;;;4941233;28;20191;-86
2021/01/26 11:01:49;;;;;;;1.47;1.33;;;0.90;98.50;;;;;;4973425;28;20209;-82
2021/01/26 11:04:19;;;;;;;2.93;1.37;;;0.90;98.50;;;;;;4953247;28;20241;-77
2021/01/26 11:06:46;;;;;;;1.07;0.70;;;0.90;98.50;;;;;;4953152;28;20182;-79
2021/01/26 11:09:14;;;;;;;0.93;0.93;;;1.00;98.50;;;;;;4953215;28;20183;-77
2021/01/26 11:11:39;;;;;;;1.70;1.47;;;0.90;98.50;;;;;;4953297;28;20210;-78
2021/01/26 11:14:08;;;;;;;3.83;2.23;;;0.90;98.50;;;;;;4953420;28;20177;-78
2021/01/26 11:16:34;;;;;;;4.83;1.80;;;0.90;98.50;;;;;;4969425;28;20233;-79
2021/01/26 11:19:00;;;;;;;1.30;1.30;;;0.90;98.50;;;;;;4949941;28;20179;-75
2021/01/26 11:21:27;;;;;;;1.60;1.50;;;0.80;98.50;;;;;;4968046;28;20855;-77
2021/01/26 11:23:54;;;;;;;2.10;1.83;;;0.80;98.50;;;;;;4957378;28;20274;-74
2021/01/26 11:26:21;;;;;;;1.10;0.97;;;0.80;98.50;;;;;;4949948;28;20214;-74
2021/01/26 11:28:48;;;;;;;1.63;1.63;;;0.70;98.50;;;;;;4922029;28;765369;-75
2021/01/26 11:31:16;;;;;;;1.60;1.50;;;0.80;98.50;;;;;;4932465;29;20210;-74
2021/01/26 11:33:42;;;;;;;1.73;1.47;;;0.80;98.50;;;;;;4936045;28;20272;-75
2021/01/26 11:36:08;;;;;;;1.27;1.27;;;0.80;98.50;;;;;;4967174;28;20296;-75
2021/01/26 11:38:34;;;;;;;1.93;1.47;;;0.80;98.50;;;;;;4949362;28;20194;-74
2021/01/26 11:41:04;;;;;;;3.87;1.60;;;0.80;98.50;;;;;;4952450;28;20202;-74
2021/01/26 11:43:31;;;;;;;2.73;2.37;;;0.80;98.50;;;;;;4949765;28;20201;-73
2021/01/26 11:45:57;;;;;;;4.07;2.10;;;0.90;98.50;;;;;;4966043;28;20190;-74
2021/01/26 11:48:24;;;;;;;1.63;1.53;;;0.90;98.50;;;;;;4968043;28;20194;-75
2021/01/26 11:50:50;;;;;;;1.73;1.63;;;0.90;98.50;;;;;;4966528;28;20213;-76
2021/01/26 11:53:17;;;;;;;1.10;1.10;;;0.90;98.50;;;;;;4945554;28;20187;-73
2021/01/26 11:55:44;;;;;;;1.60;1.50;;;0.90;98.50;;;;;;4964962;28;20178;-76
2021/01/26 11:58:11;;;;;;;0.93;0.93;;;0.90;98.50;;;;;;4953421;28;20197;-78
2021/01/26 12:00:37;;;;;;;1.83;1.73;;;0.90;98.50;;;;;;4951377;28;20186;-75
2021/01/26 12:03:04;;;;;;;1.57;1.47;;;0.90;98.50;;;;;;4948499;28;20190;-75
2021/01/26 12:05:33;;;;;;;3.37;2.33;;;1.00;98.50;;;;;;4949048;28;20182;-73
2021/01/26 12:07:58;;;;;;;3.23;1.63;;;1.00;98.50;;;;;;4958529;28;20179;-73
2021/01/26 12:10:25;;;;;;;1.93;1.03;;;0.90;98.50;;;;;;4947289;28;20726;-74
2021/01/26 12:12:52;;;;;;;1.60;1.30;;;1.00;98.50;;;;;;4955486;28;20175;-74
2021/01/26 12:15:24;;;;;;;2.53;1.67;;;0.90;98.50;;;;;;4959286;28;20183;-74
2021/01/26 12:17:49;;;;;;;3.03;1.77;;;0.90;98.50;;;;;;4963034;28;20175;-74
2021/01/26 12:20:16;;;;;;;1.13;1.03;;;1.00;98.50;;;;;;4945427;29;20180;-73
2021/01/26 12:22:41;;;;;;;3.17;2.47;;;1.00;98.50;;;;;;4945976;29;20183;-74
2021/01/26 12:25:09;;;;;;;2.73;1.73;;;1.10;98.50;;;;;;4952737;28;20304;-73
2021/01/26 12:27:35;;;;;;;1.07;1.07;;;1.20;98.50;;;;;;4946203;29;20285;-74
2021/01/26 12:30:01;;;;;;;3.87;1.67;;;1.20;98.50;;;;;;4946235;29;20742;-74
2021/01/26 12:32:26;;;;;;;2.63;1.63;;;1.20;98.50;;;;;;4935806;28;20178;-76
2021/01/26 12:34:52;;;;;;;0.63;0.63;;;1.20;98.50;;;;;;4965943;28;20186;-74
2021/01/26 12:37:19;;;;;;;1.00;0.83;;;1.20;98.50;;;;;;4964804;28;20245;-75
2021/01/26 12:39:45;;;;;;;0.80;0.80;;;1.20;98.50;;;;;;4966491;28;20177;-76
2021/01/26 12:42:13;;;;;;;0.90;0.90;;;1.30;98.50;;;;;;4964903;28;20189;-74
2021/01/26 12:44:39;;;;;;;0.97;0.50;;;1.30;98.50;;;;;;4965063;28;20298;-74
2021/01/26 12:47:05;;;;;;;1.33;0.60;;;1.30;98.50;;;;;;4965302;28;20972;-74
2021/01/26 12:49:30;;;;;;;0.43;0.43;;;1.40;98.50;;;;;;4960074;28;20664;-74
2021/01/26 12:51:56;;;;;;;0.50;0.50;;;1.40;98.50;;;;;;4963034;28;20620;-75
2021/01/26 12:54:22;;;;;;;0.50;0.50;;;1.50;98.50;;;;;;4965649;28;20191;-74
2021/01/26 12:56:48;;;;;;;0.70;0.70;;;1.50;98.50;;;;;;4965590;28;20174;-73
2021/01/26 12:59:14;;;;;;;1.37;0.47;;;1.40;98.50;;;;;;4964508;28;20718;-76
2021/01/26 13:01:40;;;;;;;0.77;0.77;;;1.40;98.50;;;;;;4937911;29;20290;-74
2021/01/26 13:04:06;;;;;;;1.80;0.60;;;1.40;98.50;;;;;;4946214;29;20996;-74
2021/01/26 13:06:32;;;;;;;0.80;0.80;;;1.30;98.50;;;;;;4950026;28;20746;-74
2021/01/26 13:08:57;;;;;;;1.07;1.00;;;1.30;98.50;;;;;;4946132;28;20190;-74
2021/01/26 13:11:24;;;;;;;0.60;0.60;;;1.30;98.50;;;;;;4964431;28;20261;-74
2021/01/26 13:14:08;;;;;;;0.87;0.87;;;1.30;98.50;;;;;;4964853;28;20922;-74
2021/01/26 13:16:34;;;;;;;1.03;1.03;;;1.40;98.50;;;;;;4962252;28;20232;-75
2021/01/26 13:19:01;;;;;;;0.93;0.93;;;1.30;98.50;;;;;;4961041;28;20186;-74
2021/01/26 13:21:27;;;;;;;1.00;1.00;;;1.30;98.50;;;;;;4946437;28;20186;-74
2021/01/26 13:23:52;;;;;;;1.40;1.30;;;1.30;98.50;;;;;;4937688;28;20205;-75
2021/01/26 13:26:18;;;;;;;6.00;1.47;;;1.30;98.50;;;;;;4952101;28;20183;-74
2021/01/26 13:28:44;;;;;;;4.43;1.20;;;1.30;98.50;;;;;;4960081;28;20202;-74
2021/01/26 13:31:10;;;;;;;1.43;1.30;;;1.20;98.50;;;;;;4931177;28;20739;-74